createdAt,value
2023-02-14T00:00:32.193Z,94.88
2023-02-14T00:02:59.511Z,93.62
2023-02-14T00:05:26.977Z,93.35
2023-02-14T00:07:54.215Z,92.52
2023-02-14T00:10:21.580Z,94.18
2023-02-14T00:12:48.987Z,93.60
2023-02-14T00:15:16.480Z,93.30
2023-02-14T00:17:43.737Z,93.66
2023-02-14T00:20:11.359Z,96.71
2023-02-14T00:22:38.570Z,98.70
2023-02-14T00:25:06.279Z,94.76
2023-02-14T00:27:33.948Z,93.47
2023-02-14T00:30:01.162Z,100.00
2023-02-14T00:32:29.804Z,96.01
2023-02-14T00:34:57.503Z,93.67
2023-02-14T00:37:24.970Z,93.24
2023-02-14T00:39:53.420Z,93.29
2023-02-14T00:42:20.683Z,98.27
2023-02-14T00:44:48.081Z,95.03
2023-02-14T00:47:15.300Z,95.16
2023-02-14T00:49:42.668Z,95.05
2023-02-14T00:52:10.268Z,95.86
2023-02-14T00:54:37.874Z,94.82
2023-02-14T00:57:05.297Z,94.93
2023-02-14T00:59:32.539Z,94.90
2023-02-14T01:01:59.819Z,97.29
2023-02-14T01:04:27.082Z,97.36
2023-02-14T01:06:54.636Z,96.02
2023-02-14T01:09:21.935Z,96.16
2023-02-14T01:11:50.293Z,96.43
2023-02-14T01:14:17.641Z,95.88
2023-02-14T01:16:44.985Z,95.44
2023-02-14T01:19:12.329Z,95.99
2023-02-14T01:21:39.717Z,97.55
2023-02-14T01:24:07.739Z,97.34
2023-02-14T01:26:35.964Z,95.99
2023-02-14T01:29:04.684Z,95.23
2023-02-14T01:31:34.094Z,96.38
2023-02-14T01:34:01.968Z,95.81
2023-02-14T01:36:30.930Z,96.07
2023-02-14T01:39:01.437Z,96.75
2023-02-14T01:41:30.971Z,97.30
2023-02-14T01:44:14.252Z,97.85
2023-02-14T01:46:44.141Z,98.34
2023-02-14T01:49:29.855Z,97.38
2023-02-14T01:52:13.314Z,96.96
2023-02-14T01:54:45.960Z,96.77
2023-02-14T01:57:16.851Z,96.03
2023-02-14T01:59:51.595Z,97.44
2023-02-14T02:02:19.381Z,97.47
2023-02-14T02:04:47.089Z,96.58
2023-02-14T02:07:19.597Z,98.63
2023-02-14T02:09:52.822Z,99.00
2023-02-14T02:12:20.448Z,99.08
2023-02-14T02:14:52.421Z,99.86
2023-02-14T02:17:50.535Z,99.45
2023-02-14T02:20:47.144Z,100.00
2023-02-14T02:23:23.173Z,99.35
2023-02-14T02:26:14.195Z,99.14
2023-02-14T02:29:12.261Z,99.25
2023-02-14T02:31:48.718Z,99.27
2023-02-14T02:34:28.212Z,100.00
2023-02-14T02:36:55.232Z,99.67
2023-02-14T02:39:41.508Z,100.00
2023-02-14T02:42:35.607Z,100.00
2023-02-14T02:45:23.879Z,100.00
2023-02-14T02:48:15.167Z,100.00
2023-02-14T02:50:48.032Z,100.00
2023-02-14T02:53:24.516Z,100.00
2023-02-14T02:56:03.443Z,100.00
2023-02-14T02:58:35.746Z,100.00
2023-02-14T03:01:09.416Z,100.00
2023-02-14T03:03:39.860Z,100.00
2023-02-14T03:06:07.093Z,100.00
2023-02-14T03:08:34.235Z,100.00
2023-02-14T03:11:04.701Z,100.00
2023-02-14T03:14:13.074Z,100.00
2023-02-14T03:17:07.659Z,100.00
2023-02-14T03:20:03.904Z,100.00
2023-02-14T03:22:37.007Z,100.00
2023-02-14T03:25:36.535Z,100.00
2023-02-14T03:28:33.670Z,100.00
2023-02-14T03:31:24.637Z,100.00
2023-02-14T03:33:57.999Z,99.49
2023-02-14T03:36:31.170Z,100.00
2023-02-14T03:39:14.299Z,99.98
2023-02-14T03:42:08.746Z,100.00
2023-02-14T03:44:38.930Z,100.00
2023-02-14T03:47:17.401Z,100.00
2023-02-14T03:49:51.807Z,100.00
2023-02-14T03:52:21.399Z,99.77
2023-02-14T03:54:53.123Z,100.00
2023-02-14T03:57:25.733Z,100.00
2023-02-14T03:59:54.106Z,100.00
2023-02-14T04:02:36.449Z,100.00
2023-02-14T04:05:12.000Z,100.00
2023-02-14T04:07:48.278Z,70.58
2023-02-14T04:10:16.658Z,68.77
2023-02-14T04:12:43.896Z,80.12
2023-02-14T04:15:12.821Z,86.70
2023-02-14T04:17:40.089Z,91.07
2023-02-14T04:20:08.137Z,95.18
2023-02-14T04:22:35.440Z,97.81
2023-02-14T04:25:02.790Z,98.96
2023-02-14T04:27:30.140Z,85.78
2023-02-14T04:29:57.531Z,78.15
2023-02-14T04:32:25.358Z,83.62
2023-02-14T04:34:53.039Z,83.58
2023-02-14T04:37:20.743Z,86.76
2023-02-14T04:39:48.310Z,85.20
2023-02-14T04:42:16.173Z,90.32
2023-02-14T04:44:43.404Z,94.59
2023-02-14T04:47:14.373Z,96.60
2023-02-14T04:49:42.581Z,97.59
2023-02-14T04:52:16.526Z,99.24
2023-02-14T04:54:44.394Z,100.00
2023-02-14T04:57:15.350Z,100.00
2023-02-14T04:59:43.712Z,100.00
2023-02-14T05:02:11.831Z,100.00
2023-02-14T05:04:39.562Z,100.00
2023-02-14T05:07:07.383Z,99.10
2023-02-14T05:09:35.189Z,97.86
2023-02-14T05:12:03.658Z,98.33
2023-02-14T05:14:31.435Z,100.00
2023-02-14T05:16:59.442Z,100.00
2023-02-14T05:19:27.251Z,100.00
2023-02-14T05:21:54.311Z,100.00
2023-02-14T05:24:21.515Z,99.99
2023-02-14T05:26:48.812Z,98.55
2023-02-14T05:29:16.161Z,100.00
2023-02-14T05:31:43.528Z,100.00
2023-02-14T05:34:10.782Z,99.36
2023-02-14T05:36:38.132Z,99.45
2023-02-14T05:39:09.694Z,97.91
2023-02-14T05:41:39.672Z,97.66
2023-02-14T05:44:06.926Z,97.43
2023-02-14T05:46:34.165Z,96.98
2023-02-14T05:49:01.413Z,98.23
2023-02-14T05:51:28.685Z,98.08
2023-02-14T05:53:56.409Z,98.66
2023-02-14T05:56:23.752Z,99.56
2023-02-14T05:58:50.982Z,97.84
2023-02-14T06:01:18.735Z,96.93
2023-02-14T06:03:46.019Z,95.90
2023-02-14T06:06:13.340Z,94.60
2023-02-14T06:08:40.962Z,94.33
2023-02-14T06:11:08.749Z,92.32
2023-02-14T06:13:35.978Z,90.84
2023-02-14T06:16:04.373Z,88.20
2023-02-14T06:18:32.077Z,87.65
2023-02-14T06:20:59.584Z,87.25
2023-02-14T06:23:26.898Z,84.86
2023-02-14T06:25:54.215Z,83.19
2023-02-14T06:28:21.502Z,83.76
2023-02-14T06:30:48.887Z,83.91
2023-02-14T06:33:16.193Z,86.64
2023-02-14T06:35:45.069Z,84.95
2023-02-14T06:38:12.327Z,84.14
2023-02-14T06:40:39.724Z,84.91
2023-02-14T06:43:07.148Z,83.15
2023-02-14T06:45:34.454Z,82.90
2023-02-14T06:48:01.759Z,79.83
2023-02-14T06:50:29.122Z,80.33
2023-02-14T06:52:56.368Z,78.33
2023-02-14T06:55:24.070Z,76.37
2023-02-14T06:57:51.303Z,76.36
2023-02-14T07:00:19.485Z,75.78
2023-02-14T07:02:46.871Z,74.57
2023-02-14T07:05:14.259Z,75.77
2023-02-14T07:07:41.553Z,76.86
2023-02-14T07:10:10.329Z,74.53
2023-02-14T07:12:37.558Z,77.24
2023-02-14T07:15:06.732Z,73.60
2023-02-14T07:17:34.433Z,72.43
2023-02-14T07:20:02.044Z,71.07
2023-02-14T07:22:30.431Z,71.15
2023-02-14T07:24:57.841Z,72.27
2023-02-14T07:27:25.125Z,67.80
2023-02-14T07:29:52.413Z,65.37
2023-02-14T07:32:19.781Z,66.91
2023-02-14T07:34:47.284Z,67.00
2023-02-14T07:37:14.536Z,66.20
2023-02-14T07:39:41.936Z,68.26
2023-02-14T07:42:10.406Z,69.27
2023-02-14T07:44:37.990Z,67.89
2023-02-14T07:47:06.858Z,66.28
2023-02-14T07:49:34.737Z,64.88
2023-02-14T07:52:03.066Z,64.86
2023-02-14T07:54:30.631Z,69.92
2023-02-14T07:56:58.068Z,62.70
2023-02-14T07:59:26.134Z,58.12
2023-02-14T08:01:53.995Z,59.15
2023-02-14T08:04:21.313Z,57.80
2023-02-14T08:06:48.904Z,57.29
2023-02-14T08:09:16.184Z,56.71
2023-02-14T08:11:43.544Z,58.38
2023-02-14T08:14:11.521Z,57.43
2023-02-14T08:16:38.826Z,62.37
2023-02-14T08:19:06.443Z,63.79
2023-02-14T08:21:33.913Z,63.34
2023-02-14T08:24:01.194Z,62.46
2023-02-14T08:26:28.894Z,61.04
2023-02-14T08:28:56.244Z,62.45
2023-02-14T08:31:35.233Z,63.22
2023-02-14T08:34:07.105Z,62.43
2023-02-14T08:36:35.073Z,64.72
2023-02-14T08:39:05.460Z,62.07
2023-02-14T08:41:34.120Z,64.46
2023-02-14T08:44:01.542Z,63.30
2023-02-14T08:46:33.260Z,61.59
2023-02-14T08:49:00.608Z,61.29
2023-02-14T08:51:27.945Z,62.76
2023-02-14T08:53:55.254Z,62.36
2023-02-14T08:56:26.433Z,62.09
2023-02-14T08:58:54.080Z,61.92
2023-02-14T09:01:21.623Z,61.45
2023-02-14T09:03:48.998Z,62.04
2023-02-14T09:06:17.753Z,60.74
2023-02-14T09:08:45.650Z,61.08
2023-02-14T09:11:22.272Z,60.45
2023-02-14T09:13:51.789Z,60.76
2023-02-14T09:16:20.474Z,60.20
2023-02-14T09:18:48.686Z,59.78
2023-02-14T09:21:22.887Z,60.73
2023-02-14T09:23:50.563Z,60.71
2023-02-14T09:26:22.739Z,61.49
2023-02-14T09:28:50.211Z,59.75
2023-02-14T09:31:23.434Z,60.52
2023-02-14T09:33:51.561Z,60.36
2023-02-14T09:36:21.775Z,59.57
2023-02-14T09:38:52.099Z,59.39
2023-02-14T09:41:41.225Z,58.58
2023-02-14T09:44:22.346Z,64.13
2023-02-14T09:46:54.669Z,60.23
2023-02-14T09:49:37.984Z,60.27
2023-02-14T09:52:10.685Z,59.18
2023-02-14T09:54:41.194Z,62.02
2023-02-14T09:57:23.102Z,61.02
2023-02-14T09:59:57.398Z,60.80
2023-02-14T10:02:36.807Z,59.42
2023-02-14T10:05:13.697Z,61.49
2023-02-14T10:08:13.776Z,58.74
2023-02-14T10:10:44.109Z,58.67
2023-02-14T10:13:11.482Z,57.94
2023-02-14T10:15:43.830Z,58.20
2023-02-14T10:18:30.736Z,57.26
2023-02-14T10:21:01.241Z,54.52
2023-02-14T10:23:41.275Z,55.61
2023-02-14T10:26:14.590Z,55.02
2023-02-14T10:28:47.993Z,53.46
2023-02-14T10:31:27.549Z,55.52
2023-02-14T10:34:00.044Z,52.07
2023-02-14T10:36:55.356Z,55.29
2023-02-14T10:39:48.979Z,53.03
2023-02-14T10:42:33.550Z,53.19
2023-02-14T10:45:15.668Z,53.19
2023-02-14T10:48:11.500Z,54.18
2023-02-14T10:50:56.907Z,52.86
2023-02-14T10:53:50.077Z,52.47
2023-02-14T10:56:26.841Z,54.56
2023-02-14T10:58:56.149Z,52.64
2023-02-14T11:01:23.674Z,54.42
2023-02-14T11:03:58.650Z,54.00
2023-02-14T11:06:26.394Z,51.70
2023-02-14T11:08:56.281Z,50.71
2023-02-14T11:11:26.938Z,49.64
2023-02-14T11:13:54.307Z,50.39
2023-02-14T11:16:36.512Z,57.91
2023-02-14T11:19:20.537Z,53.21
2023-02-14T11:21:48.901Z,53.50
2023-02-14T11:24:37.649Z,60.57
2023-02-14T11:27:17.073Z,55.85
2023-02-14T11:29:47.825Z,53.84
2023-02-14T11:32:25.849Z,52.59
2023-02-14T11:35:00.912Z,56.34
2023-02-14T11:37:31.858Z,52.67
2023-02-14T11:40:01.011Z,52.99
2023-02-14T11:42:51.671Z,52.35
2023-02-14T11:45:37.225Z,54.97
2023-02-14T11:48:36.606Z,51.74
2023-02-14T11:51:12.664Z,52.83
2023-02-14T11:53:40.292Z,52.21
2023-02-14T11:56:07.764Z,55.40
2023-02-14T11:58:58.584Z,51.66
2023-02-14T12:01:29.943Z,53.43
2023-02-14T12:04:01.158Z,52.35
2023-02-14T12:06:35.565Z,51.27
2023-02-14T12:09:23.747Z,51.37
2023-02-14T12:12:00.126Z,52.10
2023-02-14T12:14:33.774Z,52.55
2023-02-14T12:17:27.400Z,54.24
2023-02-14T12:20:14.101Z,52.34
2023-02-14T12:23:07.001Z,54.27
2023-02-14T12:25:45.295Z,56.33
2023-02-14T12:28:19.322Z,56.55
2023-02-14T12:30:47.036Z,57.34
2023-02-14T12:33:22.585Z,58.36
2023-02-14T12:36:07.879Z,59.22
2023-02-14T12:38:40.965Z,58.24
2023-02-14T12:41:33.453Z,58.20
2023-02-14T12:44:14.281Z,58.79
2023-02-14T12:46:58.145Z,58.95
2023-02-14T12:50:01.954Z,59.40
2023-02-14T12:53:01.423Z,58.71
2023-02-14T12:55:59.624Z,58.77
2023-02-14T12:58:29.938Z,59.46
2023-02-14T13:01:29.057Z,58.47
2023-02-14T13:04:22.917Z,57.72
2023-02-14T13:07:04.222Z,60.10
2023-02-14T13:09:52.221Z,54.52
2023-02-14T13:12:22.101Z,54.11
2023-02-14T13:15:08.256Z,56.90
2023-02-14T13:18:13.225Z,54.56
2023-02-14T13:20:46.322Z,55.96
2023-02-14T13:23:28.652Z,56.73
2023-02-14T13:26:15.905Z,55.75
2023-02-14T13:28:51.801Z,56.46
2023-02-14T13:31:20.845Z,56.54
2023-02-14T13:34:19.193Z,56.16
2023-02-14T13:36:50.377Z,55.17
2023-02-14T13:39:38.799Z,57.47
2023-02-14T13:42:07.022Z,58.18
2023-02-14T13:44:50.734Z,53.56
2023-02-14T13:47:27.326Z,53.16
2023-02-14T13:50:00.697Z,53.13
2023-02-14T13:52:46.020Z,53.86
2023-02-14T13:55:18.846Z,53.00
2023-02-14T13:57:47.227Z,53.55
2023-02-14T14:00:17.276Z,54.69
2023-02-14T14:02:51.187Z,51.21
2023-02-14T14:05:33.587Z,52.50
2023-02-14T14:08:33.162Z,52.21
2023-02-14T14:11:37.015Z,50.34
2023-02-14T14:14:24.202Z,52.59
2023-02-14T14:17:00.396Z,54.16
2023-02-14T14:19:27.647Z,52.95
2023-02-14T14:22:08.297Z,53.28
2023-02-14T14:24:40.483Z,53.70
2023-02-14T14:27:21.859Z,54.87
2023-02-14T14:29:53.593Z,54.53
2023-02-14T14:32:26.994Z,53.92
2023-02-14T14:35:15.974Z,54.58
2023-02-14T14:38:01.628Z,54.27
2023-02-14T14:40:35.672Z,54.73
2023-02-14T14:43:13.188Z,54.28
2023-02-14T14:45:41.688Z,54.76
2023-02-14T14:48:13.335Z,54.75
2023-02-14T14:50:45.679Z,54.35
2023-02-14T14:53:42.653Z,53.54
2023-02-14T14:56:19.566Z,53.85
2023-02-14T14:58:51.506Z,51.56
2023-02-14T15:01:49.004Z,53.77
2023-02-14T15:04:24.541Z,54.67
2023-02-14T15:06:52.092Z,55.15
2023-02-14T15:09:23.604Z,55.12
2023-02-14T15:11:53.206Z,55.55
2023-02-14T15:14:23.857Z,58.85
2023-02-14T15:16:54.922Z,59.62
2023-02-14T15:19:34.013Z,61.00
2023-02-14T15:22:06.192Z,61.06
2023-02-14T15:24:34.028Z,61.93
2023-02-14T15:27:02.183Z,63.02
2023-02-14T15:29:32.252Z,64.01
2023-02-14T15:32:04.069Z,64.22
2023-02-14T15:34:34.313Z,64.70
2023-02-14T15:37:03.220Z,65.61
2023-02-14T15:39:41.018Z,65.28
2023-02-14T15:42:28.893Z,65.53
2023-02-14T15:45:17.525Z,66.02
2023-02-14T15:47:48.764Z,66.34
2023-02-14T15:50:23.064Z,66.77
2023-02-14T15:52:55.913Z,66.80
2023-02-14T15:55:26.504Z,67.05
2023-02-14T15:58:18.902Z,67.02
2023-02-14T16:00:47.690Z,67.32
2023-02-14T16:03:35.859Z,66.75
2023-02-14T16:06:04.808Z,67.05
2023-02-14T16:08:40.368Z,67.71
2023-02-14T16:11:15.225Z,68.01
2023-02-14T16:13:45.233Z,68.40
2023-02-14T16:16:15.086Z,68.01
2023-02-14T16:18:43.629Z,68.39
2023-02-14T16:21:15.244Z,67.87
2023-02-14T16:23:44.635Z,68.52
2023-02-14T16:26:12.677Z,69.27
2023-02-14T16:28:43.032Z,68.79
2023-02-14T16:31:16.499Z,69.17
2023-02-14T16:33:43.928Z,69.59
2023-02-14T16:36:20.480Z,68.67
2023-02-14T16:38:47.843Z,68.50
2023-02-14T16:41:26.609Z,69.36
2023-02-14T16:43:55.449Z,69.26
2023-02-14T16:46:25.994Z,69.19
2023-02-14T16:48:53.525Z,69.57
2023-02-14T16:51:27.589Z,68.87
2023-02-14T16:53:57.750Z,70.53
2023-02-14T16:56:46.838Z,71.74
2023-02-14T16:59:14.204Z,72.40
2023-02-14T17:01:41.684Z,72.67
2023-02-14T17:04:09.203Z,73.22
2023-02-14T17:06:40.529Z,73.17
2023-02-14T17:09:12.767Z,73.72
2023-02-14T17:11:45.180Z,74.08
2023-02-14T17:14:17.591Z,73.88
2023-02-14T17:16:45.071Z,74.86
2023-02-14T17:19:13.002Z,76.12
2023-02-14T17:21:41.016Z,75.41
2023-02-14T17:24:08.258Z,75.28
2023-02-14T17:26:35.497Z,75.85
2023-02-14T17:29:02.822Z,76.44
2023-02-14T17:31:30.487Z,76.16
2023-02-14T17:33:57.812Z,75.64
2023-02-14T17:36:25.093Z,76.42
2023-02-14T17:38:53.953Z,75.76
2023-02-14T17:41:26.043Z,75.55
2023-02-14T17:43:53.924Z,75.54
2023-02-14T17:46:21.704Z,80.79
2023-02-14T17:48:49.484Z,77.87
2023-02-14T17:51:17.866Z,76.67
2023-02-14T17:53:45.078Z,76.45
2023-02-14T17:56:16.828Z,76.15
2023-02-14T17:58:44.115Z,76.75
2023-02-14T18:01:12.538Z,75.88
2023-02-14T18:03:40.255Z,75.54
2023-02-14T18:06:10.264Z,75.92
2023-02-14T18:08:41.181Z,78.27
2023-02-14T18:11:10.923Z,76.93
2023-02-14T18:13:39.063Z,77.25
2023-02-14T18:16:09.520Z,77.88
2023-02-14T18:18:37.476Z,77.73
2023-02-14T18:21:08.294Z,78.06
2023-02-14T18:23:35.922Z,78.35
2023-02-14T18:26:06.428Z,79.26
2023-02-14T18:28:34.994Z,80.08
2023-02-14T18:31:08.043Z,79.77
2023-02-14T18:33:36.446Z,78.98
2023-02-14T18:36:06.297Z,79.21
2023-02-14T18:38:34.567Z,79.65
2023-02-14T18:41:06.983Z,77.13
2023-02-14T18:43:35.368Z,77.49
2023-02-14T18:46:14.834Z,77.62
2023-02-14T18:48:42.203Z,77.94
2023-02-14T18:51:12.905Z,78.28
2023-02-14T18:53:41.337Z,77.34
2023-02-14T18:56:11.456Z,77.92
2023-02-14T18:58:40.846Z,77.24
2023-02-14T19:01:18.060Z,77.52
2023-02-14T19:03:45.592Z,79.55
2023-02-14T19:06:13.103Z,79.36
2023-02-14T19:08:41.141Z,78.53
2023-02-14T19:11:13.996Z,79.35
2023-02-14T19:13:49.898Z,78.35
2023-02-14T19:16:21.026Z,78.82
2023-02-14T19:18:48.792Z,78.75
2023-02-14T19:21:18.459Z,80.39
2023-02-14T19:23:46.161Z,79.74
2023-02-14T19:26:19.686Z,79.44
2023-02-14T19:28:49.355Z,79.54
2023-02-14T19:31:16.854Z,80.47
2023-02-14T19:33:46.118Z,80.66
2023-02-14T19:36:17.896Z,80.30
2023-02-14T19:38:48.025Z,79.66
2023-02-14T19:41:25.199Z,81.48
2023-02-14T19:43:59.307Z,81.68
2023-02-14T19:46:28.614Z,81.42
2023-02-14T19:49:00.080Z,80.83
2023-02-14T19:51:28.945Z,80.61
2023-02-14T19:53:58.692Z,80.55
2023-02-14T19:56:29.971Z,84.66
2023-02-14T19:58:58.112Z,77.42
2023-02-14T20:01:43.609Z,79.58
2023-02-14T20:04:14.990Z,81.08
2023-02-14T20:06:43.256Z,82.70
2023-02-14T20:09:14.078Z,83.23
2023-02-14T20:11:42.205Z,82.83
2023-02-14T20:14:09.667Z,83.09
2023-02-14T20:16:37.502Z,83.56
2023-02-14T20:19:08.021Z,83.80
2023-02-14T20:21:35.338Z,85.31
2023-02-14T20:24:04.103Z,84.65
2023-02-14T20:26:35.043Z,85.89
2023-02-14T20:29:07.681Z,84.95
2023-02-14T20:31:35.727Z,86.02
2023-02-14T20:34:03.747Z,86.06
2023-02-14T20:36:31.342Z,85.72
2023-02-14T20:39:01.070Z,85.67
2023-02-14T20:41:30.109Z,86.46
2023-02-14T20:44:04.393Z,87.55
2023-02-14T20:46:33.451Z,88.26
2023-02-14T20:49:01.184Z,89.96
2023-02-14T20:51:29.352Z,86.55
2023-02-14T20:53:56.652Z,87.15
2023-02-14T20:56:24.282Z,87.23
2023-02-14T20:58:51.779Z,87.44
2023-02-14T21:01:23.679Z,86.60
2023-02-14T21:03:53.679Z,86.99
2023-02-14T21:06:26.758Z,87.42
2023-02-14T21:08:54.309Z,87.98
2023-02-14T21:11:22.639Z,89.30
2023-02-14T21:13:53.301Z,88.34
2023-02-14T21:16:23.313Z,87.19
2023-02-14T21:18:58.613Z,87.10
2023-02-14T21:21:40.421Z,88.92
2023-02-14T21:24:18.384Z,88.63
2023-02-14T21:26:48.280Z,87.35
2023-02-14T21:29:15.656Z,87.07
2023-02-14T21:31:43.569Z,87.73
2023-02-14T21:34:11.168Z,89.97
2023-02-14T21:36:43.906Z,89.44
2023-02-14T21:39:11.336Z,90.25
2023-02-14T21:41:38.872Z,89.84
2023-02-14T21:44:06.457Z,89.45
2023-02-14T21:46:38.609Z,89.53
2023-02-14T21:49:06.445Z,89.54
2023-02-14T21:51:33.810Z,89.33
2023-02-14T21:54:01.174Z,88.85
2023-02-14T21:56:28.563Z,89.91
2023-02-14T21:58:56.665Z,90.12
2023-02-14T22:01:30.202Z,90.40
2023-02-14T22:03:59.241Z,89.65
2023-02-14T22:06:27.477Z,91.48
2023-02-14T22:08:56.864Z,91.21
2023-02-14T22:11:26.156Z,91.96
2023-02-14T22:13:53.990Z,91.32
2023-02-14T22:16:22.475Z,90.67
2023-02-14T22:18:49.872Z,91.93
2023-02-14T22:21:22.553Z,91.08
2023-02-14T22:23:50.311Z,91.94
2023-02-14T22:26:30.396Z,92.99
2023-02-14T22:28:59.403Z,91.40
2023-02-14T22:31:29.299Z,91.62
2023-02-14T22:33:58.158Z,92.86
2023-02-14T22:36:26.042Z,94.03
2023-02-14T22:38:53.267Z,96.02
2023-02-14T22:41:23.194Z,94.10
2023-02-14T22:43:51.242Z,93.52
2023-02-14T22:46:20.254Z,93.92
2023-02-14T22:48:49.120Z,93.75
2023-02-14T22:51:39.955Z,93.21
2023-02-14T22:54:13.233Z,93.72
2023-02-14T22:56:46.345Z,93.13
2023-02-14T22:59:25.455Z,94.17
2023-02-14T23:01:53.613Z,93.63
2023-02-14T23:04:23.621Z,94.33
2023-02-14T23:06:53.000Z,94.17
2023-02-14T23:09:20.503Z,93.59
2023-02-14T23:11:48.374Z,93.56
2023-02-14T23:14:17.140Z,93.91
2023-02-14T23:16:45.267Z,93.41
2023-02-14T23:19:15.187Z,93.70
2023-02-14T23:21:42.442Z,93.89
2023-02-14T23:24:10.139Z,93.31
2023-02-14T23:26:37.461Z,94.42
2023-02-14T23:29:04.745Z,93.81
2023-02-14T23:31:32.160Z,95.76
2023-02-14T23:33:59.545Z,94.64
2023-02-14T23:36:27.018Z,94.42
2023-02-14T23:38:54.192Z,95.02
2023-02-14T23:41:21.637Z,95.30
2023-02-14T23:43:48.911Z,95.53
2023-02-14T23:46:16.125Z,94.84
2023-02-14T23:48:43.374Z,94.49
2023-02-14T23:51:10.608Z,93.70
2023-02-14T23:53:38.114Z,94.17
2023-02-14T23:56:06.275Z,94.89
2023-02-14T23:58:33.902Z,96.06
